Time;durP1;ratioP1;P1;durP2;ratioP2;P2;SDS_P1;SDS_P2;PMS_P1;PMS_P2;Temp;Humidity;BMP_temperature;BMP_pressure;BME280_temperature;BME280_humidity;BME280_pressure;Samples;Min_cycle;Max_cycle;Signal;HPM_P1;HPM_P2
2024/04/13 00:02:17;;;;;;;;;25.00;20.25;;;;;;;;5277186;27;8839;-71
2024/04/13 00:04:42;;;;;;;;;17.50;17.25;;;;;;;;5307934;27;8839;-72
2024/04/13 00:07:08;;;;;;;;;18.50;18.25;;;;;;;;5307697;27;8930;-72
2024/04/13 00:09:33;;;;;;;;;20.25;18.75;;;;;;;;5307306;27;9634;-72
2024/04/13 00:11:58;;;;;;;;;23.00;19.00;;;;;;;;5307131;27;8886;-73
2024/04/13 00:14:24;;;;;;;;;22.00;17.75;;;;;;;;5306608;27;8870;-72
2024/04/13 00:16:49;;;;;;;;;21.50;21.00;;;;;;;;5306478;27;8835;-73
2024/04/13 00:19:15;;;;;;;;;5.75;5.75;;;;;;;;5306882;27;8933;-72
2024/04/13 00:21:41;;;;;;;;;22.75;19.50;;;;;;;;5307222;27;8859;-72
2024/04/13 00:24:06;;;;;;;;;22.00;20.75;;;;;;;;5276938;27;8835;-72
2024/04/13 00:26:34;;;;;;;;;22.75;20.00;;;;;;;;5307214;27;8877;-73
2024/04/13 00:28:59;;;;;;;;;20.50;17.75;;;;;;;;5277032;27;8855;-71
2024/04/13 00:31:24;;;;;;;;;22.50;20.50;;;;;;;;5276772;27;11352;-73
2024/04/13 00:33:49;;;;;;;;;23.25;21.75;;;;;;;;5276567;27;8866;-72
2024/04/13 00:36:15;;;;;;;;;23.75;21.00;;;;;;;;5306963;27;8863;-73
2024/04/13 00:38:40;;;;;;;;;19.25;19.25;;;;;;;;5277416;27;8843;-71
2024/04/13 00:41:05;;;;;;;;;21.00;20.50;;;;;;;;5307522;27;8883;-72
2024/04/13 00:43:30;;;;;;;;;19.25;17.75;;;;;;;;5306962;27;9624;-72
2024/04/13 00:45:56;;;;;;;;;18.50;17.75;;;;;;;;5307339;27;8926;-72
2024/04/13 00:48:23;;;;;;;;;18.50;18.50;;;;;;;;5306880;27;8850;-71
2024/04/13 00:50:54;;;;;;;;;17.75;17.00;;;;;;;;5276727;27;8855;-73
2024/04/13 00:53:20;;;;;;;;;27.75;24.00;;;;;;;;5276361;27;12235;-73
2024/04/13 00:55:46;;;;;;;;;21.50;20.50;;;;;;;;5306749;27;11526;-72
2024/04/13 00:58:12;;;;;;;;;19.50;19.50;;;;;;;;5306972;27;12190;-72
2024/04/13 01:00:38;;;;;;;;;19.75;17.00;;;;;;;;5307061;27;11592;-72
2024/04/13 01:03:03;;;;;;;;;18.75;16.50;;;;;;;;5307226;27;8847;-72
2024/04/13 01:05:33;;;;;;;;;21.75;20.25;;;;;;;;5276215;27;11648;-71
2024/04/13 01:08:00;;;;;;;;;19.75;17.50;;;;;;;;5307370;27;9561;-72
2024/04/13 01:10:25;;;;;;;;;18.75;18.75;;;;;;;;5306875;27;11512;-72
2024/04/13 01:12:51;;;;;;;;;20.50;17.50;;;;;;;;5276379;27;11626;-72
2024/04/13 01:15:16;;;;;;;;;21.00;18.75;;;;;;;;5306716;27;8889;-72
2024/04/13 01:17:43;;;;;;;;;20.25;19.25;;;;;;;;5306516;27;8831;-72
2024/04/13 01:20:08;;;;;;;;;16.25;15.00;;;;;;;;5306341;27;8827;-72
2024/04/13 01:22:36;;;;;;;;;20.50;14.25;;;;;;;;5306604;27;11554;-72
2024/04/13 01:25:02;;;;;;;;;22.00;19.75;;;;;;;;5306497;27;8895;-72
2024/04/13 01:27:28;;;;;;;;;21.25;19.25;;;;;;;;5306306;27;11546;-73
2024/04/13 01:29:53;;;;;;;;;21.25;21.00;;;;;;;;5305836;27;8859;-73
2024/04/13 01:32:18;;;;;;;;;20.75;19.25;;;;;;;;5306566;27;8858;-72
2024/04/13 01:34:44;;;;;;;;;19.50;19.00;;;;;;;;5306329;27;8946;-72
2024/04/13 01:37:09;;;;;;;;;17.00;17.00;;;;;;;;5306218;27;8934;-72
2024/04/13 01:39:34;;;;;;;;;20.50;19.25;;;;;;;;5306324;27;8847;-72
2024/04/13 01:41:59;;;;;;;;;21.00;19.75;;;;;;;;5306177;27;8835;-73
2024/04/13 01:44:25;;;;;;;;;18.00;16.25;;;;;;;;5275706;27;8851;-72
2024/04/13 01:46:51;;;;;;;;;23.00;20.00;;;;;;;;5306019;27;8855;-72
2024/04/13 01:49:16;;;;;;;;;20.50;20.00;;;;;;;;5306780;27;8815;-71
2024/04/13 01:51:42;;;;;;;;;19.50;18.50;;;;;;;;5306547;27;11605;-72
2024/04/13 01:54:07;;;;;;;;;21.50;18.50;;;;;;;;5306394;27;8871;-72
2024/04/13 01:56:51;;;;;;;;;17.75;17.75;;;;;;;;5306080;27;8931;-71
2024/04/13 01:59:16;;;;;;;;;18.50;18.50;;;;;;;;5306096;27;8811;-72
2024/04/13 02:01:42;;;;;;;;;16.00;16.00;;;;;;;;5275241;27;11596;-71
2024/04/13 02:04:07;;;;;;;;;18.25;16.75;;;;;;;;5306099;27;8877;-71
2024/04/13 02:06:32;;;;;;;;;22.00;18.00;;;;;;;;5275194;27;8831;-71
2024/04/13 02:08:57;;;;;;;;;17.00;17.00;;;;;;;;5305694;27;9517;-72
2024/04/13 02:11:23;;;;;;;;;18.50;16.00;;;;;;;;5275095;27;8827;-72
2024/04/13 02:13:48;;;;;;;;;18.25;16.00;;;;;;;;5305181;27;8866;-72
2024/04/13 02:16:13;;;;;;;;;23.00;19.00;;;;;;;;5305580;27;8861;-73
2024/04/13 02:18:39;;;;;;;;;17.25;16.00;;;;;;;;5305578;27;8858;-72
2024/04/13 02:21:05;;;;;;;;;19.75;19.75;;;;;;;;5305854;27;8827;-72
2024/04/13 02:23:30;;;;;;;;;17.50;17.50;;;;;;;;5305640;27;8819;-72
2024/04/13 02:25:58;;;;;;;;;16.00;15.25;;;;;;;;5274854;27;11588;-72
2024/04/13 02:28:23;;;;;;;;;15.00;15.00;;;;;;;;5306006;27;8827;-73
2024/04/13 02:30:48;;;;;;;;;20.50;16.75;;;;;;;;5305500;27;12564;-72
2024/04/13 02:33:14;;;;;;;;;17.75;16.00;;;;;;;;5305336;27;8921;-73
2024/04/13 02:35:39;;;;;;;;;22.00;20.00;;;;;;;;5305504;27;8851;-72
2024/04/13 02:38:04;;;;;;;;;19.00;16.00;;;;;;;;5305666;27;8827;-72
2024/04/13 02:40:31;;;;;;;;;17.00;17.00;;;;;;;;5306374;27;8811;-79
2024/04/13 02:43:01;;;;;;;;;17.00;15.75;;;;;;;;5309540;27;8816;-75
2024/04/13 02:45:26;;;;;;;;;22.75;19.25;;;;;;;;5308745;27;11495;-74
2024/04/13 02:47:51;;;;;;;;;19.25;19.00;;;;;;;;5308824;27;11653;-74
2024/04/13 02:50:17;;;;;;;;;23.00;19.50;;;;;;;;5308901;27;8878;-73
2024/04/13 02:52:42;;;;;;;;;19.25;18.00;;;;;;;;5308621;27;8823;-73
2024/04/13 02:55:07;;;;;;;;;19.25;17.75;;;;;;;;5308503;27;8847;-73
2024/04/13 02:57:33;;;;;;;;;20.00;18.00;;;;;;;;5307818;27;8940;-73
2024/04/13 02:59:58;;;;;;;;;15.00;15.00;;;;;;;;5278424;27;8930;-75
2024/04/13 03:02:24;;;;;;;;;20.00;18.25;;;;;;;;5308079;27;8843;-73
2024/04/13 03:04:53;;;;;;;;;18.25;15.00;;;;;;;;5308464;27;9023;-74
2024/04/13 03:07:19;;;;;;;;;26.00;18.00;;;;;;;;5277757;27;8858;-71
2024/04/13 03:09:44;;;;;;;;;18.25;17.75;;;;;;;;5307862;27;11555;-73
2024/04/13 03:12:09;;;;;;;;;15.75;14.75;;;;;;;;5307807;27;8878;-75
2024/04/13 03:14:35;;;;;;;;;17.25;15.75;;;;;;;;5307978;27;8883;-74
2024/04/13 03:17:00;;;;;;;;;14.75;14.75;;;;;;;;5309766;27;9162;-74
2024/04/13 03:19:25;;;;;;;;;15.00;15.00;;;;;;;;5280149;27;8838;-75
2024/04/13 03:21:51;;;;;;;;;15.25;15.25;;;;;;;;5308099;27;8899;-74
2024/04/13 03:24:16;;;;;;;;;16.75;15.25;;;;;;;;5308080;27;8922;-74
2024/04/13 03:26:42;;;;;;;;;17.75;16.00;;;;;;;;5307982;27;8819;-75
2024/04/13 03:29:07;;;;;;;;;12.00;12.00;;;;;;;;5307753;27;8834;-74
2024/04/13 03:31:32;;;;;;;;;19.25;14.00;;;;;;;;5307620;27;8851;-74
2024/04/13 03:33:57;;;;;;;;;15.00;14.25;;;;;;;;5307710;27;8831;-75
2024/04/13 03:36:23;;;;;;;;;19.00;15.00;;;;;;;;5307766;27;8838;-74
2024/04/13 03:38:53;;;;;;;;;17.00;15.25;;;;;;;;5307890;27;8902;-73
2024/04/13 03:41:18;;;;;;;;;15.00;15.00;;;;;;;;5307873;27;8965;-74
2024/04/13 03:43:44;;;;;;;;;15.50;15.25;;;;;;;;5277197;27;11525;-73
2024/04/13 03:46:09;;;;;;;;;19.50;17.25;;;;;;;;5307487;27;8827;-74
2024/04/13 03:48:38;;;;;;;;;15.00;15.00;;;;;;;;5307422;27;8855;-74
2024/04/13 03:51:03;;;;;;;;;16.00;16.00;;;;;;;;5307413;27;8838;-73
2024/04/13 03:53:29;;;;;;;;;17.50;14.75;;;;;;;;5307814;27;11524;-74
2024/04/13 03:55:54;;;;;;;;;17.25;16.75;;;;;;;;5307332;27;8853;-74
2024/04/13 03:58:20;;;;;;;;;18.75;15.25;;;;;;;;5307119;27;11613;-74
2024/04/13 04:00:45;;;;;;;;;17.75;15.50;;;;;;;;5307778;27;8843;-74
2024/04/13 04:03:10;;;;;;;;;19.75;18.00;;;;;;;;5307295;27;8831;-74
2024/04/13 04:05:36;;;;;;;;;18.00;15.50;;;;;;;;5277422;27;8845;-75
2024/04/13 04:08:01;;;;;;;;;18.25;16.25;;;;;;;;5277454;27;8839;-75
2024/04/13 04:10:26;;;;;;;;;15.75;15.50;;;;;;;;5277388;27;8808;-75
2024/04/13 04:12:51;;;;;;;;;14.50;14.25;;;;;;;;5307887;27;9572;-75
2024/04/13 04:15:17;;;;;;;;;19.00;15.75;;;;;;;;5310543;27;9019;-75
2024/04/13 04:17:42;;;;;;;;;17.75;17.75;;;;;;;;5310156;27;8929;-75
2024/04/13 04:20:07;;;;;;;;;17.75;16.25;;;;;;;;5308308;27;8819;-74
2024/04/13 04:22:32;;;;;;;;;19.50;18.25;;;;;;;;5307965;27;8843;-76
2024/04/13 04:24:58;;;;;;;;;16.50;15.00;;;;;;;;5308041;27;8835;-76
2024/04/13 04:27:23;;;;;;;;;19.50;18.00;;;;;;;;5308149;27;8839;-74
2024/04/13 04:29:48;;;;;;;;;23.00;18.75;;;;;;;;5307754;27;8861;-74
2024/04/13 04:32:13;;;;;;;;;21.50;21.50;;;;;;;;5307387;27;8926;-76
2024/04/13 04:34:39;;;;;;;;;16.00;16.00;;;;;;;;5307320;27;9602;-75
2024/04/13 04:37:04;;;;;;;;;22.50;18.75;;;;;;;;5307340;27;8929;-75
2024/04/13 04:39:29;;;;;;;;;21.00;17.25;;;;;;;;5307437;27;8862;-75
2024/04/13 04:41:55;;;;;;;;;19.25;17.00;;;;;;;;5309455;27;8878;-79
2024/04/13 04:44:20;;;;;;;;;18.00;18.00;;;;;;;;5280238;27;8893;-75
2024/04/13 04:46:46;;;;;;;;;20.50;19.25;;;;;;;;5319076;27;8846;-76
2024/04/13 04:49:11;;;;;;;;;18.00;18.00;;;;;;;;5317816;27;8877;-75
2024/04/13 04:51:36;;;;;;;;;19.75;18.50;;;;;;;;5278581;27;9100;-73
2024/04/13 04:54:01;;;;;;;;;18.75;18.75;;;;;;;;5310339;27;8937;-72
2024/04/13 04:56:27;;;;;;;;;17.50;17.50;;;;;;;;5309387;27;8925;-73
2024/04/13 04:58:52;;;;;;;;;19.50;18.50;;;;;;;;5307373;27;8815;-73
2024/04/13 05:01:17;;;;;;;;;19.00;17.50;;;;;;;;5306992;27;8835;-74
2024/04/13 05:03:43;;;;;;;;;20.25;20.25;;;;;;;;5276108;27;8859;-68
2024/04/13 05:06:08;;;;;;;;;18.25;18.25;;;;;;;;5306992;27;8823;-68
2024/04/13 05:08:33;;;;;;;;;17.50;17.50;;;;;;;;5306969;27;9662;-69
2024/04/13 05:10:59;;;;;;;;;20.75;19.75;;;;;;;;5306927;27;8851;-67
2024/04/13 05:13:24;;;;;;;;;25.00;20.75;;;;;;;;5306684;27;8831;-70
2024/04/13 05:15:50;;;;;;;;;19.75;16.25;;;;;;;;5306960;27;8812;-72
2024/04/13 05:18:15;;;;;;;;;17.25;17.00;;;;;;;;5306600;27;8875;-69
2024/04/13 05:20:40;;;;;;;;;19.25;17.75;;;;;;;;5248018;27;8827;-70
2024/04/13 05:23:06;;;;;;;;;19.50;17.00;;;;;;;;5276252;27;8831;-67
2024/04/13 05:25:32;;;;;;;;;23.25;20.50;;;;;;;;5275791;27;8799;-68
2024/04/13 05:27:58;;;;;;;;;24.00;19.00;;;;;;;;5306127;27;11610;-68
2024/04/13 05:30:23;;;;;;;;;18.75;18.75;;;;;;;;5306259;27;8873;-67
2024/04/13 05:32:49;;;;;;;;;21.00;20.75;;;;;;;;5306533;27;8872;-68
2024/04/13 05:35:16;;;;;;;;;22.75;17.75;;;;;;;;5275732;27;8842;-68
2024/04/13 05:37:42;;;;;;;;;18.25;18.25;;;;;;;;5306245;27;8866;-69
2024/04/13 05:40:07;;;;;;;;;24.00;20.00;;;;;;;;5305968;27;11575;-68
2024/04/13 05:42:32;;;;;;;;;28.75;28.50;;;;;;;;5310081;27;8815;-68
2024/04/13 05:44:58;;;;;;;;;18.50;17.25;;;;;;;;5306501;27;8819;-69
2024/04/13 05:47:23;;;;;;;;;23.50;22.00;;;;;;;;5276081;27;8823;-68
2024/04/13 05:49:50;;;;;;;;;21.00;18.50;;;;;;;;5305662;27;8881;-67
2024/04/13 05:52:15;;;;;;;;;24.75;21.50;;;;;;;;5301635;26;8921;-68
2024/04/13 05:54:40;;;;;;;;;23.75;22.50;;;;;;;;5286667;27;11625;-68
2024/04/13 05:57:07;;;;;;;;;24.25;22.75;;;;;;;;5306014;27;8960;-68
2024/04/13 05:59:32;;;;;;;;;19.25;19.25;;;;;;;;5306273;27;8870;-69
2024/04/13 06:01:57;;;;;;;;;22.75;20.50;;;;;;;;5305541;27;11644;-70
2024/04/13 06:04:23;;;;;;;;;22.50;20.50;;;;;;;;5254481;26;8839;-68
2024/04/13 06:06:50;;;;;;;;;19.50;19.50;;;;;;;;5306284;27;8831;-68
2024/04/13 06:09:15;;;;;;;;;26.25;24.25;;;;;;;;5305919;27;8855;-68
2024/04/13 06:11:41;;;;;;;;;21.00;20.50;;;;;;;;5306193;27;12456;-67
2024/04/13 06:14:06;;;;;;;;;26.25;24.00;;;;;;;;5305684;27;8859;-66
2024/04/13 06:16:31;;;;;;;;;25.50;24.50;;;;;;;;5307597;27;8842;-69
2024/04/13 06:18:56;;;;;;;;;24.00;21.50;;;;;;;;5309405;27;8831;-76
2024/04/13 06:21:22;;;;;;;;;20.75;20.75;;;;;;;;5309052;27;8906;-74
2024/04/13 06:23:48;;;;;;;;;29.75;24.25;;;;;;;;5274416;27;8839;-72
2024/04/13 06:26:13;;;;;;;;;22.25;19.25;;;;;;;;5278327;27;8889;-72
2024/04/13 06:28:39;;;;;;;;;26.50;24.00;;;;;;;;5308416;27;11592;-72
2024/04/13 06:31:04;;;;;;;;;26.25;25.25;;;;;;;;5308683;27;8964;-72
2024/04/13 06:33:29;;;;;;;;;28.50;23.25;;;;;;;;5308569;27;8847;-73
2024/04/13 06:35:54;;;;;;;;;30.25;23.50;;;;;;;;5278547;27;8835;-72
2024/04/13 06:38:26;;;;;;;;;30.50;26.50;;;;;;;;5278004;27;8945;-73
2024/04/13 06:40:52;;;;;;;;;29.25;26.00;;;;;;;;5283058;27;8893;-76
2024/04/13 06:43:17;;;;;;;;;27.75;25.25;;;;;;;;5314937;27;12309;-79
2024/04/13 06:45:42;;;;;;;;;26.25;24.25;;;;;;;;5310452;27;11591;-79
2024/04/13 06:48:08;;;;;;;;;25.50;25.50;;;;;;;;5279907;27;8933;-79
2024/04/13 06:50:33;;;;;;;;;27.25;26.25;;;;;;;;5309854;27;9717;-79
2024/04/13 06:52:59;;;;;;;;;30.75;28.25;;;;;;;;5286157;27;8906;-78
2024/04/13 06:55:24;;;;;;;;;26.25;25.00;;;;;;;;5309391;27;8885;-78
2024/04/13 06:57:50;;;;;;;;;31.50;26.50;;;;;;;;5279722;27;8859;-74
2024/04/13 07:00:15;;;;;;;;;30.00;27.50;;;;;;;;5308962;27;8965;-74
2024/04/13 07:02:41;;;;;;;;;28.25;26.00;;;;;;;;5308608;27;8851;-76
2024/04/13 07:05:09;;;;;;;;;27.00;26.50;;;;;;;;5309754;27;8843;-77
2024/04/13 07:07:35;;;;;;;;;32.25;29.00;;;;;;;;5277642;27;8871;-79
2024/04/13 07:10:00;;;;;;;;;27.75;25.25;;;;;;;;5308442;27;11709;-79
2024/04/13 07:12:25;;;;;;;;;30.75;26.00;;;;;;;;5297347;27;8870;-75
2024/04/13 07:14:50;;;;;;;;;28.75;27.50;;;;;;;;5306990;27;8831;-75
2024/04/13 07:17:16;;;;;;;;;38.00;33.50;;;;;;;;5291374;27;8842;-74
2024/04/13 07:19:41;;;;;;;;;34.25;30.00;;;;;;;;5274435;27;8854;-75
2024/04/13 07:22:06;;;;;;;;;34.50;31.00;;;;;;;;5273346;27;10075;-86
2024/04/13 07:24:32;;;;;;;;;30.50;28.50;;;;;;;;5272567;27;8922;-76
2024/04/13 07:26:57;;;;;;;;;31.75;27.75;;;;;;;;5272061;27;8888;-78
2024/04/13 07:29:22;;;;;;;;;26.75;26.25;;;;;;;;5275461;27;8885;-79
2024/04/13 07:31:47;;;;;;;;;33.00;31.50;;;;;;;;5277926;27;8917;-75
2024/04/13 07:34:12;;;;;;;;;26.00;24.50;;;;;;;;5307962;27;8851;-78
2024/04/13 07:36:38;;;;;;;;;30.25;23.00;;;;;;;;5302011;27;8842;-75
2024/04/13 07:39:03;;;;;;;;;26.25;23.50;;;;;;;;5272721;27;9679;-74
2024/04/13 07:41:28;;;;;;;;;28.25;27.00;;;;;;;;5286767;27;8866;-76
2024/04/13 07:43:53;;;;;;;;;30.00;26.00;;;;;;;;5240227;27;8870;-76
2024/04/13 07:46:21;;;;;;;;;30.25;28.50;;;;;;;;5297753;27;8976;-77
2024/04/13 07:48:46;;;;;;;;;27.50;26.50;;;;;;;;5262186;27;8933;-79
2024/04/13 07:51:11;;;;;;;;;28.50;24.75;;;;;;;;5274811;27;11597;-77
2024/04/13 07:53:36;;;;;;;;;26.00;24.50;;;;;;;;5276232;27;8870;-77
2024/04/13 07:56:01;;;;;;;;;28.75;27.00;;;;;;;;5240151;27;8878;-76
2024/04/13 07:58:27;;;;;;;;;23.75;22.50;;;;;;;;5270716;27;9580;-75
2024/04/13 08:00:52;;;;;;;;;27.00;25.75;;;;;;;;5295772;27;8835;-75
2024/04/13 08:03:17;;;;;;;;;24.75;24.00;;;;;;;;5263169;27;8854;-75
2024/04/13 08:05:43;;;;;;;;;24.25;23.00;;;;;;;;5291778;27;8885;-77
2024/04/13 08:08:09;;;;;;;;;26.25;23.00;;;;;;;;5274617;27;8827;-77
2024/04/13 08:10:39;;;;;;;;;34.00;31.75;;;;;;;;5306738;27;9710;-77
2024/04/13 08:13:04;;;;;;;;;30.25;26.50;;;;;;;;5294744;27;9699;-75
2024/04/13 08:15:29;;;;;;;;;23.25;23.00;;;;;;;;5306959;27;10549;-75
2024/04/13 08:17:57;;;;;;;;;31.00;28.75;;;;;;;;5307282;27;9088;-76
2024/04/13 08:20:22;;;;;;;;;24.00;22.25;;;;;;;;5305735;27;8853;-76
2024/04/13 08:22:48;;;;;;;;;30.75;27.00;;;;;;;;5270793;27;9798;-75
2024/04/13 08:25:14;;;;;;;;;25.75;23.75;;;;;;;;5264800;27;8929;-78
2024/04/13 08:27:39;;;;;;;;;28.00;26.25;;;;;;;;5301359;26;8808;-78
2024/04/13 08:30:05;;;;;;;;;18.33;16.67;;;;;;;;5261423;27;8881;-75
2024/04/13 08:32:31;;;;;;;;;30.00;28.67;;;;;;;;5281729;27;8835;-74
2024/04/13 08:34:56;;;;;;;;;26.33;25.00;;;;;;;;5257506;27;9409;-76
2024/04/13 08:37:21;;;;;;;;;27.67;27.33;;;;;;;;5289368;27;8839;-74
2024/04/13 08:39:46;;;;;;;;;30.33;25.67;;;;;;;;5260470;27;8840;-75
2024/04/13 08:42:14;;;;;;;;;31.67;28.00;;;;;;;;5281137;27;8874;-74
2024/04/13 08:44:39;;;;;;;;;23.50;23.00;;;;;;;;5272002;27;8945;-74
2024/04/13 08:47:05;;;;;;;;;26.67;25.00;;;;;;;;5270655;27;8827;-73
2024/04/13 08:49:36;;;;;;;;;26.25;23.50;;;;;;;;5272668;27;8865;-72
2024/04/13 08:52:02;;;;;;;;;24.00;23.00;;;;;;;;5277615;27;8831;-78
2024/04/13 08:54:30;;;;;;;;;23.75;23.00;;;;;;;;5272805;27;8835;-76
2024/04/13 08:56:55;;;;;;;;;24.50;24.00;;;;;;;;5273101;27;8831;-76
2024/04/13 08:59:20;;;;;;;;;22.00;20.67;;;;;;;;5274415;27;8857;-73
2024/04/13 09:01:47;;;;;;;;;22.00;21.00;;;;;;;;5305868;27;8839;-76
2024/04/13 09:04:14;;;;;;;;;25.00;24.50;;;;;;;;5285797;27;8961;-79
2024/04/13 09:06:40;;;;;;;;;18.00;18.00;;;;;;;;5249229;27;8869;-80
2024/04/13 09:09:08;;;;;;;;;22.00;22.00;;;;;;;;5277262;27;8834;-80
2024/04/13 09:11:35;;;;;;;;;22.50;22.50;;;;;;;;5272582;27;8850;-73
2024/04/13 09:14:00;;;;;;;;;20.00;20.00;;;;;;;;5272856;27;9597;-77
2024/04/13 09:16:26;;;;;;;;;20.67;20.00;;;;;;;;5273059;27;8877;-75
2024/04/13 09:18:51;;;;;;;;;18.33;18.00;;;;;;;;5272724;27;8913;-75
2024/04/13 09:21:17;;;;;;;;;19.00;19.00;;;;;;;;5273102;27;8858;-76
2024/04/13 09:23:43;;;;;;;;;20.67;19.67;;;;;;;;5273090;27;8842;-74
2024/04/13 09:26:09;;;;;;;;;21.50;19.50;;;;;;;;5273502;27;8844;-76
2024/04/13 09:28:41;;;;;;;;;19.75;18.75;;;;;;;;5272689;27;9611;-75
2024/04/13 09:31:11;;;;;;;;;21.75;19.00;;;;;;;;5283834;27;8815;-78
2024/04/13 09:33:37;;;;;;;;;19.75;18.75;;;;;;;;5302442;26;8977;-76
2024/04/13 09:36:03;;;;;;;;;21.25;18.75;;;;;;;;5287537;27;8952;-75
2024/04/13 09:38:28;;;;;;;;;22.33;20.33;;;;;;;;5288196;27;8835;-77
2024/04/13 09:40:59;;;;;;;;;23.00;21.33;;;;;;;;5287308;27;8847;-78
2024/04/13 09:43:24;;;;;;;;;23.00;22.50;;;;;;;;5258756;27;8990;-77
2024/04/13 09:46:00;;;;;;;;;26.33;24.00;;;;;;;;5290934;27;8843;-76
2024/04/13 09:48:26;;;;;;;;;24.00;24.00;;;;;;;;5290196;27;8838;-75
2024/04/13 09:50:51;;;;;;;;;22.67;20.67;;;;;;;;5256820;27;8898;-75
2024/04/13 09:53:17;;;;;;;;;22.67;21.67;;;;;;;;5259633;27;8846;-74
2024/04/13 09:55:43;;;;;;;;;32.50;27.75;;;;;;;;5288822;27;8823;-73
2024/04/13 09:58:11;;;;;;;;;21.50;19.50;;;;;;;;5287592;27;8815;-74
2024/04/13 10:00:37;;;;;;;;;20.25;18.50;;;;;;;;5293290;27;8909;-79
2024/04/13 10:03:02;;;;;;;;;21.33;20.00;;;;;;;;5294020;27;8891;-81
2024/04/13 10:05:29;;;;;;;;;22.33;22.00;;;;;;;;5303484;27;8827;-82
2024/04/13 10:07:54;;;;;;;;;21.25;21.25;;;;;;;;5296999;27;8956;-86
2024/04/13 10:10:26;;;;;;;;;24.33;22.33;;;;;;;;5261318;27;8831;-87
2024/04/13 10:12:52;;;;;;;;;23.00;22.00;;;;;;;;5302909;27;8820;-81
2024/04/13 10:15:18;;;;;;;;;22.50;21.50;;;;;;;;5299376;27;8957;-85
2024/04/13 10:17:44;;;;;;;;;20.00;19.33;;;;;;;;5306265;27;8831;-80
2024/04/13 10:20:09;;;;;;;;;20.25;19.75;;;;;;;;5275936;27;8854;-78
2024/04/13 10:22:36;;;;;;;;;20.33;16.00;;;;;;;;5306016;27;8823;-72
2024/04/13 10:25:06;;;;;;;;;16.75;16.75;;;;;;;;5304050;27;8843;-71
2024/04/13 10:27:32;;;;;;;;;12.00;12.00;;;;;;;;5273651;27;8831;-73
2024/04/13 10:29:59;;;;;;;;;14.67;12.67;;;;;;;;5274831;27;8854;-75
2024/04/13 10:32:24;;;;;;;;;16.00;13.00;;;;;;;;5306155;27;8835;-72
2024/04/13 10:34:50;;;;;;;;;13.67;13.67;;;;;;;;5304832;27;8969;-71
2024/04/13 10:37:30;;;;;;;;;12.33;12.33;;;;;;;;5302591;27;8835;-74
2024/04/13 10:39:56;;;;;;;;;12.00;12.00;;;;;;;;5305607;27;8843;-74
2024/04/13 10:42:32;;;;;;;;;15.25;14.50;;;;;;;;5306260;27;8815;-73
2024/04/13 10:44:57;;;;;;;;;12.25;11.25;;;;;;;;5272657;27;8953;-74
2024/04/13 10:47:22;;;;;;;;;11.00;10.33;;;;;;;;5300724;27;8843;-73
2024/04/13 10:49:48;;;;;;;;;11.00;11.00;;;;;;;;5304551;27;8895;-72
2024/04/13 10:52:14;;;;;;;;;13.25;12.50;;;;;;;;5304336;27;8950;-76
2024/04/13 10:54:39;;;;;;;;;10.00;10.00;;;;;;;;5304543;27;8945;-76
2024/04/13 10:57:05;;;;;;;;;8.33;7.33;;;;;;;;5304780;27;8835;-75
2024/04/13 10:59:30;;;;;;;;;7.67;7.67;;;;;;;;5305148;27;8914;-74
2024/04/13 11:01:55;;;;;;;;;15.67;15.67;;;;;;;;5302961;27;8836;-73
2024/04/13 11:04:21;;;;;;;;;16.67;16.00;;;;;;;;5308122;27;8851;-75
2024/04/13 11:06:46;;;;;;;;;11.33;11.33;;;;;;;;5277218;27;8843;-74
2024/04/13 11:09:15;;;;;;;;;9.00;9.00;;;;;;;;5308552;27;8847;-75
2024/04/13 11:11:40;;;;;;;;;27.75;24.00;;;;;;;;5308539;27;8850;-75
2024/04/13 11:14:06;;;;;;;;;7.00;7.00;;;;;;;;5306302;27;9030;-78
2024/04/13 11:16:31;;;;;;;;;28.33;27.00;;;;;;;;5308264;27;8823;-79
2024/04/13 11:18:56;;;;;;;;;16.33;13.67;;;;;;;;5308504;27;8926;-75
2024/04/13 11:21:23;;;;;;;;;26.33;23.67;;;;;;;;5307980;27;8924;-74
2024/04/13 11:23:48;;;;;;;;;28.00;25.67;;;;;;;;5307692;27;8854;-72
2024/04/13 11:26:14;;;;;;;;;30.00;26.33;;;;;;;;5307528;27;8950;-68
2024/04/13 11:28:39;;;;;;;;;16.33;15.00;;;;;;;;5308241;27;9891;-76
2024/04/13 11:31:05;;;;;;;;;27.33;25.33;;;;;;;;5308592;27;8831;-77
2024/04/13 11:33:31;;;;;;;;;28.00;25.67;;;;;;;;5308504;27;8937;-78
2024/04/13 11:35:57;;;;;;;;;26.50;22.25;;;;;;;;5308839;27;8878;-78
2024/04/13 11:38:23;;;;;;;;;27.67;27.67;;;;;;;;5278297;27;8912;-78
2024/04/13 11:40:49;;;;;;;;;14.00;11.33;;;;;;;;5278584;27;8851;-77
2024/04/13 11:43:15;;;;;;;;;17.00;15.75;;;;;;;;5308080;27;8854;-72
2024/04/13 11:45:40;;;;;;;;;22.33;20.67;;;;;;;;5306430;27;8881;-72
2024/04/13 11:48:05;;;;;;;;;25.33;24.00;;;;;;;;5308616;27;8843;-76
2024/04/13 11:50:31;;;;;;;;;26.33;20.00;;;;;;;;5308648;27;8850;-72
2024/04/13 11:52:57;;;;;;;;;15.75;15.75;;;;;;;;5308166;27;8916;-72
2024/04/13 11:55:23;;;;;;;;;14.33;14.00;;;;;;;;5308028;27;8867;-76
2024/04/13 11:57:48;;;;;;;;;8.00;8.00;;;;;;;;5278014;27;9581;-75
2024/04/13 12:00:14;;;;;;;;;8.33;8.00;;;;;;;;5277902;27;10615;-77
2024/04/13 12:02:39;;;;;;;;;14.00;14.00;;;;;;;;5306566;27;8811;-73
2024/04/13 12:05:05;;;;;;;;;10.00;10.00;;;;;;;;5307297;27;10763;-72
2024/04/13 12:07:30;;;;;;;;;9.00;9.00;;;;;;;;5307719;27;8867;-72
2024/04/13 12:09:55;;;;;;;;;8.33;8.33;;;;;;;;5306880;27;8873;-72
2024/04/13 12:12:20;;;;;;;;;11.67;11.67;;;;;;;;5307572;27;8838;-72
2024/04/13 12:14:47;;;;;;;;;13.67;13.67;;;;;;;;5307811;27;8851;-73
2024/04/13 12:17:13;;;;;;;;;9.25;9.25;;;;;;;;5286802;27;11166;-74
2024/04/13 12:19:38;;;;;;;;;13.33;12.00;;;;;;;;5284050;27;8846;-73
2024/04/13 12:22:03;;;;;;;;;19.67;18.67;;;;;;;;5302121;27;9245;-74
2024/04/13 12:24:30;;;;;;;;;17.00;16.33;;;;;;;;5307060;26;8893;-72
2024/04/13 12:26:55;;;;;;;;;19.67;18.33;;;;;;;;5307387;26;8819;-72
2024/04/13 12:29:20;;;;;;;;;18.67;17.67;;;;;;;;5306729;26;9003;-72
2024/04/13 12:31:45;;;;;;;;;19.00;16.00;;;;;;;;5273186;27;9014;-72
2024/04/13 12:34:11;;;;;;;;;15.67;13.67;;;;;;;;5273179;27;8917;-72
2024/04/13 12:36:37;;;;;;;;;15.67;14.67;;;;;;;;5272953;27;8842;-71
2024/04/13 12:39:03;;;;;;;;;15.00;14.00;;;;;;;;5242983;27;8830;-72
2024/04/13 12:41:28;;;;;;;;;19.67;17.67;;;;;;;;5242947;27;8834;-72
2024/04/13 12:43:54;;;;;;;;;7.67;7.00;;;;;;;;5243017;27;8941;-72
2024/04/13 12:46:20;;;;;;;;;16.67;15.67;;;;;;;;5272929;27;8960;-72
2024/04/13 12:48:45;;;;;;;;;15.75;14.25;;;;;;;;5242992;27;8842;-72
2024/04/13 12:51:11;;;;;;;;;20.33;16.33;;;;;;;;5272675;27;8835;-72
2024/04/13 12:53:37;;;;;;;;;18.00;17.33;;;;;;;;5273074;27;8842;-75
2024/04/13 12:56:02;;;;;;;;;19.67;17.67;;;;;;;;5273034;27;8908;-73
2024/04/13 12:58:28;;;;;;;;;13.33;13.33;;;;;;;;5273184;27;8929;-75
2024/04/13 13:00:53;;;;;;;;;9.00;9.00;;;;;;;;5272823;27;8834;-75
2024/04/13 13:03:18;;;;;;;;;20.00;18.67;;;;;;;;5243001;27;9635;-74
2024/04/13 13:05:43;;;;;;;;;17.33;16.67;;;;;;;;5273002;27;8969;-75
2024/04/13 13:08:09;;;;;;;;;12.00;11.33;;;;;;;;5273130;27;9602;-75
2024/04/13 13:10:34;;;;;;;;;16.67;14.67;;;;;;;;5242841;27;8831;-74
2024/04/13 13:12:59;;;;;;;;;10.33;9.00;;;;;;;;5273439;27;8854;-75
2024/04/13 13:15:25;;;;;;;;;12.00;11.00;;;;;;;;5272662;27;8854;-75
2024/04/13 13:17:50;;;;;;;;;14.33;14.33;;;;;;;;5272776;27;9567;-75
2024/04/13 13:20:15;;;;;;;;;15.00;13.67;;;;;;;;5272434;27;8885;-75
2024/04/13 13:22:40;;;;;;;;;7.33;7.33;;;;;;;;5272713;27;8834;-74
2024/04/13 13:25:06;;;;;;;;;16.00;14.33;;;;;;;;5241601;27;8854;-74
2024/04/13 13:27:31;;;;;;;;;16.33;14.67;;;;;;;;5281411;27;8831;-75
2024/04/13 13:29:56;;;;;;;;;16.33;16.33;;;;;;;;5272289;27;8822;-75
2024/04/13 13:32:24;;;;;;;;;15.67;15.33;;;;;;;;5272116;27;8862;-75
2024/04/13 13:34:49;;;;;;;;;13.33;13.00;;;;;;;;5272586;27;8831;-76
2024/04/13 13:37:14;;;;;;;;;17.67;15.33;;;;;;;;5272449;27;9006;-75
2024/04/13 13:39:39;;;;;;;;;15.67;15.67;;;;;;;;5269061;27;9509;-74
2024/04/13 13:42:05;;;;;;;;;17.00;13.00;;;;;;;;5268767;27;9592;-76
2024/04/13 13:44:31;;;;;;;;;13.00;12.67;;;;;;;;5268661;27;8871;-75
2024/04/13 13:46:57;;;;;;;;;13.75;12.50;;;;;;;;5268326;27;8880;-75
2024/04/13 13:49:22;;;;;;;;;18.00;16.67;;;;;;;;5239131;27;8846;-76
2024/04/13 13:51:48;;;;;;;;;11.33;11.33;;;;;;;;5238944;27;8850;-72
2024/04/13 13:54:13;;;;;;;;;7.67;7.67;;;;;;;;5239298;27;8862;-71
2024/04/13 13:56:38;;;;;;;;;7.67;7.33;;;;;;;;5273416;27;9594;-72
2024/04/13 13:59:03;;;;;;;;;12.00;9.67;;;;;;;;5272379;27;8939;-70
2024/04/13 14:01:29;;;;;;;;;6.67;6.00;;;;;;;;5272135;27;8862;-70
2024/04/13 14:03:55;;;;;;;;;12.75;12.00;;;;;;;;5269934;27;8851;-74
2024/04/13 14:06:20;;;;;;;;;9.00;9.00;;;;;;;;5273095;27;8914;-72
2024/04/13 14:08:45;;;;;;;;;14.67;13.00;;;;;;;;5271755;27;8872;-72
2024/04/13 14:11:11;;;;;;;;;7.33;7.00;;;;;;;;5272434;27;8912;-74
2024/04/13 14:13:36;;;;;;;;;8.33;8.33;;;;;;;;5243782;27;8853;-74
2024/04/13 14:16:02;;;;;;;;;7.67;6.00;;;;;;;;5287659;27;8842;-74
2024/04/13 14:18:27;;;;;;;;;10.67;10.00;;;;;;;;5288808;26;9572;-74
2024/04/13 14:20:53;;;;;;;;;11.00;10.33;;;;;;;;5234798;26;11681;-78
2024/04/13 14:23:21;;;;;;;;;15.33;13.67;;;;;;;;5285230;26;8839;-78